Paulina, Oregon
Current Conditions -  °F | °C
As of 10:55 PM on Thursday 27 Nov 2014 (Local Time) from KS39 Reporting Station
Overcast Overcast  
Wind Chill: 52°   Ceiling: 6000
Heat Index: 52°   Visibility: 10mi
Dew Point: 39°   Wind: 7mph
Humidity: 62%   Direction: 190°S
Pressure: 29.89"   Gusts: NA
Location:  44.13°N, 119.97°W
Report Text: KS39 280655Z AUTO 19006KT 10SM BKN060 OVC070 11/04 A2989 RMK AO2
Loading
Personal Weather Stations






























Interactive Weather Map New forecast layout! Learn more

10-Day Weather Forecast

Advertisements
Track Severe Weather on mobile